createdAt,value
2019-05-05T00:02:22.262Z,75.80
2019-05-05T00:05:04.977Z,75.80
2019-05-05T00:07:34.927Z,75.70
2019-05-05T00:10:09.530Z,75.90
2019-05-05T00:12:55.285Z,76.00
2019-05-05T00:15:56.010Z,75.80
2019-05-05T00:18:27.550Z,75.90
2019-05-05T00:20:56.686Z,75.80
2019-05-05T00:23:25.724Z,75.90
2019-05-05T00:25:55.310Z,75.80
2019-05-05T00:28:24.884Z,76.00
2019-05-05T00:30:55.423Z,76.10
2019-05-05T00:33:25.033Z,76.10
2019-05-05T00:35:54.662Z,76.20
2019-05-05T00:38:24.914Z,76.10
2019-05-05T00:40:55.022Z,76.20
2019-05-05T00:43:25.275Z,76.20
2019-05-05T00:45:57.079Z,76.10
2019-05-05T00:48:35.166Z,76.20
2019-05-05T00:51:04.709Z,76.40
2019-05-05T00:53:34.437Z,76.30
2019-05-05T00:56:05.099Z,76.30
2019-05-05T00:58:36.158Z,76.30
2019-05-05T01:01:20.516Z,76.30
2019-05-05T01:03:49.922Z,76.30
2019-05-05T01:06:21.543Z,76.20
2019-05-05T01:08:50.956Z,76.10
2019-05-05T01:11:20.721Z,76.10
2019-05-05T01:13:49.867Z,75.90
2019-05-05T01:16:19.293Z,76.10
2019-05-05T01:18:48.739Z,75.90
2019-05-05T01:21:17.915Z,76.00
2019-05-05T01:23:47.308Z,76.20
2019-05-05T01:26:16.807Z,75.60
2019-05-05T01:28:45.772Z,76.10
2019-05-05T01:31:17.947Z,76.10
2019-05-05T01:34:04.992Z,76.10
2019-05-05T01:36:35.500Z,76.10
2019-05-05T01:39:22.595Z,76.10
2019-05-05T01:41:55.303Z,76.10
2019-05-05T01:44:24.696Z,76.20
2019-05-05T01:46:55.093Z,76.00
2019-05-05T01:49:25.243Z,76.20
2019-05-05T01:51:55.281Z,76.20
2019-05-05T01:54:24.992Z,76.20
2019-05-05T01:56:55.438Z,76.30
2019-05-05T01:59:25.030Z,76.30
2019-05-05T02:01:55.065Z,76.20
2019-05-05T02:04:25.174Z,76.20
2019-05-05T02:06:55.063Z,76.20
2019-05-05T02:09:24.971Z,76.10
2019-05-05T02:11:54.818Z,76.10
2019-05-05T02:14:24.744Z,76.30
2019-05-05T02:16:54.706Z,76.30
2019-05-05T02:19:25.005Z,76.20
2019-05-05T02:21:54.941Z,76.20
2019-05-05T02:24:25.162Z,76.20
2019-05-05T02:26:54.711Z,76.10
2019-05-05T02:29:45.237Z,76.20
2019-05-05T02:32:19.975Z,76.20
2019-05-05T02:34:56.312Z,76.10
2019-05-05T02:37:25.578Z,76.10
2019-05-05T02:39:58.860Z,76.00
2019-05-05T02:42:27.667Z,76.10
2019-05-05T02:45:00.115Z,76.00
2019-05-05T02:47:54.903Z,76.00
2019-05-05T02:50:26.466Z,76.10
2019-05-05T02:52:58.861Z,77.00
2019-05-05T02:55:28.515Z,76.20
2019-05-05T02:57:58.302Z,76.10
2019-05-05T03:00:45.195Z,76.20
2019-05-05T03:03:14.267Z,76.30
2019-05-05T03:05:43.541Z,76.20
2019-05-05T03:08:13.855Z,76.30
2019-05-05T03:10:44.310Z,76.20
2019-05-05T03:13:14.594Z,76.20
2019-05-05T03:15:55.024Z,77.00
2019-05-05T03:18:24.721Z,76.40
2019-05-05T03:21:02.410Z,76.40
2019-05-05T03:23:25.238Z,76.40
2019-05-05T03:25:54.955Z,76.30
2019-05-05T03:28:25.862Z,76.20
2019-05-05T03:30:55.842Z,76.30
2019-05-05T03:33:25.303Z,76.30
2019-05-05T03:35:54.824Z,76.50
2019-05-05T03:38:24.799Z,76.30
2019-05-05T03:40:55.765Z,76.30
2019-05-05T03:43:28.887Z,76.30
2019-05-05T03:46:00.607Z,77.10
2019-05-05T03:48:29.715Z,76.30
2019-05-05T03:50:58.758Z,76.20
2019-05-05T03:53:28.397Z,76.30
2019-05-05T03:55:57.948Z,76.40
2019-05-05T03:58:27.721Z,76.50
2019-05-05T04:02:03.943Z,76.60
2019-05-05T04:04:37.696Z,76.60
2019-05-05T04:07:07.959Z,76.60
2019-05-05T04:09:37.021Z,76.60
2019-05-05T04:12:05.962Z,76.80
2019-05-05T04:14:35.000Z,76.70
2019-05-05T04:17:16.891Z,76.80
2019-05-05T04:19:48.350Z,77.00
2019-05-05T04:22:17.329Z,77.10
2019-05-05T04:24:46.654Z,77.40
2019-05-05T04:27:16.199Z,77.20
2019-05-05T04:29:45.318Z,77.00
2019-05-05T04:32:14.555Z,77.70
2019-05-05T04:34:44.093Z,77.00
2019-05-05T04:37:14.897Z,77.10
2019-05-05T04:39:45.020Z,77.10
2019-05-05T04:42:14.215Z,77.10
2019-05-05T04:44:44.844Z,76.90
2019-05-05T04:47:20.011Z,76.80
2019-05-05T04:49:58.710Z,76.90
2019-05-05T04:52:27.679Z,77.00
2019-05-05T04:54:56.649Z,77.10
2019-05-05T04:57:25.864Z,77.00
2019-05-05T04:59:55.183Z,77.20
2019-05-05T05:02:43.636Z,77.30
2019-05-05T05:05:20.009Z,77.40
2019-05-05T05:07:48.774Z,77.60
2019-05-05T05:10:18.064Z,77.40
2019-05-05T05:12:47.165Z,77.40
2019-05-05T05:15:17.155Z,77.50
2019-05-05T05:18:14.999Z,77.50
2019-05-05T05:20:44.486Z,77.50
2019-05-05T05:23:14.278Z,77.50
2019-05-05T05:25:43.915Z,77.50
2019-05-05T05:28:14.368Z,77.70
2019-05-05T05:30:44.021Z,77.80
2019-05-05T05:33:14.843Z,77.70
2019-05-05T05:35:44.097Z,77.70
2019-05-05T05:38:14.054Z,77.60
2019-05-05T05:40:53.556Z,77.80
2019-05-05T05:43:29.025Z,77.70
2019-05-05T05:46:13.623Z,77.60
2019-05-05T05:49:05.564Z,77.80
2019-05-05T05:51:34.604Z,77.80
2019-05-05T05:54:03.838Z,77.70
2019-05-05T05:56:34.271Z,77.80
2019-05-05T05:59:03.879Z,77.70
2019-05-05T06:01:34.577Z,77.60
2019-05-05T06:04:04.063Z,77.40
2019-05-05T06:06:34.638Z,77.50
2019-05-05T06:09:05.578Z,77.60
2019-05-05T06:11:34.565Z,77.60
2019-05-05T06:14:04.114Z,77.60
2019-05-05T06:16:34.171Z,77.70
2019-05-05T06:19:03.808Z,77.90
2019-05-05T06:21:33.732Z,77.80
2019-05-05T06:24:04.513Z,77.70
2019-05-05T06:26:34.347Z,77.60
2019-05-05T06:29:04.345Z,77.60
2019-05-05T06:31:34.340Z,77.50
2019-05-05T06:34:03.757Z,77.50
2019-05-05T06:36:34.006Z,77.70
2019-05-05T06:39:05.735Z,77.60
2019-05-05T06:41:56.478Z,77.80
2019-05-05T06:44:41.355Z,78.10
2019-05-05T06:47:19.498Z,77.90
2019-05-05T06:49:51.451Z,77.90
2019-05-05T06:52:20.357Z,77.90
2019-05-05T06:54:49.222Z,77.70
2019-05-05T06:57:18.431Z,78.10
2019-05-05T06:59:47.569Z,77.70
2019-05-05T07:02:17.156Z,77.60
2019-05-05T07:04:45.999Z,77.50
2019-05-05T07:07:15.281Z,77.30
2019-05-05T07:09:44.433Z,77.40
2019-05-05T07:12:14.039Z,77.50
2019-05-05T07:14:44.492Z,77.60
2019-05-05T07:17:14.044Z,77.80
2019-05-05T07:19:44.943Z,77.90
2019-05-05T07:22:14.447Z,77.90
2019-05-05T07:24:44.371Z,78.00
2019-05-05T07:27:13.977Z,78.10
2019-05-05T07:29:43.829Z,78.20
2019-05-05T07:32:14.129Z,78.30
2019-05-05T07:34:54.650Z,78.50
2019-05-05T07:37:23.924Z,78.60
2019-05-05T07:39:54.041Z,78.70
2019-05-05T07:42:24.325Z,78.60
2019-05-05T07:44:54.660Z,78.60
2019-05-05T07:47:24.245Z,78.60
2019-05-05T07:49:53.631Z,78.50
2019-05-05T07:52:23.726Z,78.60
2019-05-05T07:54:54.999Z,78.60
2019-05-05T07:57:23.936Z,78.60
2019-05-05T07:59:54.065Z,78.60
2019-05-05T08:02:23.789Z,78.70
2019-05-05T08:04:54.432Z,79.40
2019-05-05T08:07:24.048Z,79.10
2019-05-05T08:09:53.738Z,78.90
2019-05-05T08:12:24.900Z,78.90
2019-05-05T08:14:53.994Z,78.90
2019-05-05T08:17:48.873Z,78.90
2019-05-05T08:20:23.805Z,79.20
2019-05-05T08:22:53.657Z,78.80
2019-05-05T08:25:40.386Z,79.00
2019-05-05T08:28:46.646Z,78.70
2019-05-05T08:31:20.766Z,78.60
2019-05-05T08:33:49.947Z,78.40
2019-05-05T08:36:19.079Z,78.40
2019-05-05T08:38:48.256Z,78.60
2019-05-05T08:41:17.543Z,78.20
2019-05-05T08:43:46.613Z,78.20
2019-05-05T08:46:15.979Z,78.10
2019-05-05T08:48:44.867Z,78.30
2019-05-05T08:51:14.278Z,78.10
2019-05-05T08:53:48.019Z,78.00
2019-05-05T08:56:15.082Z,77.90
2019-05-05T08:58:43.949Z,77.90
2019-05-05T09:01:14.951Z,77.70
2019-05-05T09:03:44.294Z,77.70
2019-05-05T09:06:13.842Z,77.80
2019-05-05T09:08:44.098Z,77.70
2019-05-05T09:11:14.120Z,77.30
2019-05-05T09:13:44.649Z,76.90
2019-05-05T09:16:14.512Z,76.90
2019-05-05T09:19:04.168Z,77.10
2019-05-05T09:21:34.542Z,76.90
2019-05-05T09:24:22.191Z,76.40
2019-05-05T09:26:58.914Z,76.20
2019-05-05T09:29:46.874Z,76.10
2019-05-05T09:32:16.001Z,75.50
2019-05-05T09:34:44.855Z,75.20
2019-05-05T09:37:15.093Z,75.00
2019-05-05T09:39:44.028Z,74.60
2019-05-05T09:42:14.555Z,73.90
2019-05-05T09:44:43.915Z,74.90
2019-05-05T09:47:13.833Z,74.70
2019-05-05T09:49:44.515Z,74.20
2019-05-05T09:52:14.124Z,74.60
2019-05-05T09:54:43.866Z,74.50
2019-05-05T09:57:14.479Z,75.20
2019-05-05T09:59:44.088Z,75.20
2019-05-05T10:02:13.658Z,74.90
2019-05-05T10:04:44.114Z,74.70
2019-05-05T10:07:13.853Z,74.80
2019-05-05T10:09:43.822Z,74.80
2019-05-05T10:12:12.736Z,74.30
2019-05-05T10:14:41.565Z,74.10
2019-05-05T10:17:10.393Z,73.80
2019-05-05T10:19:39.468Z,74.00
2019-05-05T10:22:08.933Z,74.20
2019-05-05T10:24:44.395Z,74.10
2019-05-05T10:27:13.618Z,74.30
2019-05-05T10:29:44.217Z,73.90
2019-05-05T10:32:13.805Z,74.20
2019-05-05T10:34:44.445Z,74.10
2019-05-05T10:37:14.256Z,74.40
2019-05-05T10:39:48.676Z,74.30
2019-05-05T10:42:18.114Z,74.20
2019-05-05T10:44:47.331Z,74.00
2019-05-05T10:47:16.143Z,73.80
2019-05-05T10:49:45.034Z,73.60
2019-05-05T10:52:14.362Z,73.50
2019-05-05T10:54:44.788Z,71.80
2019-05-05T10:57:15.552Z,71.80
2019-05-05T10:59:45.045Z,71.70
2019-05-05T11:02:14.236Z,71.50
2019-05-05T11:04:44.224Z,71.30
2019-05-05T11:07:14.563Z,70.70
2019-05-05T11:09:44.469Z,70.60
2019-05-05T11:12:14.294Z,70.50
2019-05-05T11:14:44.276Z,70.10
2019-05-05T11:17:14.470Z,70.20
2019-05-05T11:19:44.232Z,70.70
2019-05-05T11:22:14.657Z,71.00
2019-05-05T11:24:57.258Z,71.40
2019-05-05T11:27:15.881Z,71.40
2019-05-05T11:30:04.014Z,72.20
2019-05-05T11:32:51.526Z,72.70
2019-05-05T11:35:24.458Z,72.40
2019-05-05T11:37:54.344Z,72.50
2019-05-05T11:40:33.000Z,72.70
2019-05-05T11:43:03.768Z,71.40
2019-05-05T11:45:34.326Z,71.50
2019-05-05T11:48:03.047Z,71.30
2019-05-05T11:50:34.210Z,70.60
2019-05-05T11:53:03.972Z,70.10
2019-05-05T11:55:33.538Z,70.00
2019-05-05T11:58:03.594Z,69.90
2019-05-05T12:00:34.593Z,69.80
2019-05-05T12:03:03.925Z,69.30
2019-05-05T12:05:33.752Z,68.60
2019-05-05T12:08:03.929Z,68.50
2019-05-05T12:10:51.311Z,68.20
2019-05-05T12:13:20.390Z,68.70
2019-05-05T12:15:54.905Z,68.40
2019-05-05T12:18:24.128Z,68.60
2019-05-05T12:20:54.815Z,68.60
2019-05-05T12:23:23.678Z,68.50
2019-05-05T12:26:14.549Z,68.60
2019-05-05T12:28:49.905Z,68.20
2019-05-05T12:31:22.110Z,67.20
2019-05-05T12:33:51.055Z,66.90
2019-05-05T12:36:20.189Z,67.20
2019-05-05T12:38:49.155Z,66.60
2019-05-05T12:41:20.864Z,65.20
2019-05-05T12:43:50.491Z,66.50
2019-05-05T12:46:45.330Z,66.70
2019-05-05T12:49:14.451Z,66.40
2019-05-05T12:51:43.701Z,66.00
2019-05-05T12:54:14.534Z,66.00
2019-05-05T12:56:44.534Z,65.70
2019-05-05T12:59:20.707Z,66.20
2019-05-05T13:01:49.674Z,65.70
2019-05-05T13:04:18.856Z,65.00
2019-05-05T13:06:47.747Z,63.80
2019-05-05T13:09:16.818Z,64.30
2019-05-05T13:11:45.766Z,62.60
2019-05-05T13:14:14.823Z,63.10
2019-05-05T13:16:52.448Z,63.80
2019-05-05T13:19:34.696Z,62.80
2019-05-05T13:22:17.050Z,62.10
2019-05-05T13:25:04.617Z,61.80
2019-05-05T13:27:36.827Z,61.90
2019-05-05T13:30:07.111Z,63.00
2019-05-05T13:32:36.231Z,63.60
2019-05-05T13:35:06.471Z,64.20
2019-05-05T13:37:35.590Z,64.70
2019-05-05T13:40:05.169Z,65.10
2019-05-05T13:42:34.199Z,66.10
2019-05-05T13:45:14.555Z,65.40
2019-05-05T13:47:43.764Z,65.60
2019-05-05T13:50:17.333Z,65.10
2019-05-05T13:52:46.352Z,64.60
2019-05-05T13:55:15.833Z,64.70
2019-05-05T13:57:44.659Z,64.60
2019-05-05T14:00:16.210Z,64.40
2019-05-05T14:02:45.715Z,64.10
2019-05-05T14:05:14.779Z,64.20
2019-05-05T14:07:43.809Z,64.80
2019-05-05T14:10:14.422Z,63.80
2019-05-05T14:12:43.845Z,65.00
2019-05-05T14:15:17.053Z,63.90
2019-05-05T14:17:46.393Z,64.20
2019-05-05T14:20:15.678Z,64.40
2019-05-05T14:22:44.815Z,64.70
2019-05-05T14:25:25.044Z,64.60
2019-05-05T14:27:54.520Z,65.00
2019-05-05T14:30:59.406Z,64.50
2019-05-05T14:33:31.778Z,64.70
2019-05-05T14:36:26.359Z,64.60
2019-05-05T14:38:57.064Z,65.00
2019-05-05T14:41:25.931Z,65.00
2019-05-05T14:43:56.520Z,65.10
2019-05-05T14:46:25.566Z,64.50
2019-05-05T14:48:54.491Z,64.50
2019-05-05T14:51:23.346Z,64.10
2019-05-05T14:53:54.123Z,64.70
2019-05-05T14:56:35.374Z,64.80
2019-05-05T14:58:54.301Z,64.90
2019-05-05T15:01:24.764Z,65.20
2019-05-05T15:03:53.779Z,65.80
2019-05-05T15:06:40.044Z,65.60
2019-05-05T15:09:28.540Z,64.30
2019-05-05T15:12:08.725Z,64.90
2019-05-05T15:14:37.887Z,64.80
2019-05-05T15:17:06.988Z,64.70
2019-05-05T15:19:36.203Z,64.60
2019-05-05T15:22:05.401Z,64.50
2019-05-05T15:24:34.457Z,63.70
2019-05-05T15:27:03.604Z,63.00
2019-05-05T15:29:34.366Z,63.40
2019-05-05T15:32:04.334Z,63.60
2019-05-05T15:34:34.402Z,63.70
2019-05-05T15:37:03.965Z,63.70
2019-05-05T15:39:33.657Z,63.70
2019-05-05T15:42:04.464Z,63.50
2019-05-05T15:44:34.460Z,63.70
2019-05-05T15:47:04.541Z,63.30
2019-05-05T15:49:33.702Z,63.50
2019-05-05T15:52:04.464Z,63.80
2019-05-05T15:54:34.010Z,63.30
2019-05-05T15:57:06.323Z,62.50
2019-05-05T15:59:34.744Z,61.60
2019-05-05T16:02:04.475Z,62.60
2019-05-05T16:04:34.572Z,62.00
2019-05-05T16:07:04.576Z,62.30
2019-05-05T16:09:33.962Z,62.30
2019-05-05T16:12:03.800Z,62.30
2019-05-05T16:14:35.599Z,63.50
2019-05-05T16:17:15.611Z,62.50
2019-05-05T16:19:55.035Z,62.80
2019-05-05T16:22:43.767Z,63.00
2019-05-05T16:25:17.642Z,63.20
2019-05-05T16:27:46.518Z,63.10
2019-05-05T16:30:16.127Z,63.40
2019-05-05T16:32:45.334Z,63.70
2019-05-05T16:35:14.740Z,63.90
2019-05-05T16:37:44.102Z,64.30
2019-05-05T16:40:14.678Z,64.30
2019-05-05T16:42:43.862Z,64.70
2019-05-05T16:45:13.687Z,64.70
2019-05-05T16:47:44.386Z,64.50
2019-05-05T16:50:14.602Z,64.90
2019-05-05T16:52:49.670Z,64.70
2019-05-05T16:55:27.810Z,65.00
2019-05-05T16:57:56.655Z,64.80
2019-05-05T17:00:25.885Z,64.80
2019-05-05T17:02:55.005Z,64.90
2019-05-05T17:05:24.202Z,64.70
2019-05-05T17:07:55.408Z,64.90
2019-05-05T17:10:24.538Z,64.90
2019-05-05T17:12:54.131Z,64.90
2019-05-05T17:15:41.424Z,65.10
2019-05-05T17:18:35.230Z,65.00
2019-05-05T17:21:07.979Z,64.90
2019-05-05T17:23:37.119Z,64.90
2019-05-05T17:26:06.296Z,65.10
2019-05-05T17:28:35.583Z,65.10
2019-05-05T17:31:04.679Z,65.00
2019-05-05T17:33:33.918Z,65.10
2019-05-05T17:36:04.508Z,65.10
2019-05-05T17:38:34.287Z,64.50
2019-05-05T17:41:17.850Z,64.50
2019-05-05T17:44:00.676Z,64.50
2019-05-05T17:46:41.414Z,63.90
2019-05-05T17:49:35.635Z,63.50
2019-05-05T17:52:34.356Z,63.80
2019-05-05T17:55:24.133Z,64.70
2019-05-05T17:58:01.485Z,64.50
2019-05-05T18:00:25.015Z,64.70
2019-05-05T18:02:54.133Z,65.10
2019-05-05T18:05:44.646Z,65.10
2019-05-05T18:08:33.806Z,65.20
2019-05-05T18:11:07.319Z,65.10
2019-05-05T18:13:43.433Z,65.70
2019-05-05T18:16:14.067Z,65.60
2019-05-05T18:18:44.474Z,65.70
2019-05-05T18:21:14.206Z,65.70
2019-05-05T18:23:43.835Z,65.90
2019-05-05T18:26:13.676Z,66.00
2019-05-05T18:28:44.767Z,66.20
2019-05-05T18:31:13.958Z,66.40
2019-05-05T18:33:43.885Z,66.50
2019-05-05T18:36:14.171Z,66.60
2019-05-05T18:38:44.453Z,66.80
2019-05-05T18:41:20.805Z,66.90
2019-05-05T18:44:05.858Z,67.20
2019-05-05T18:46:35.466Z,67.20
2019-05-05T18:49:04.684Z,67.10
2019-05-05T18:51:34.796Z,67.20
2019-05-05T18:54:04.453Z,67.30
2019-05-05T18:56:34.783Z,67.40
2019-05-05T18:59:06.449Z,67.50
2019-05-05T19:01:51.971Z,67.70
2019-05-05T19:04:31.116Z,67.70
2019-05-05T19:07:28.133Z,67.80
2019-05-05T19:09:57.182Z,67.70
2019-05-05T19:12:26.498Z,67.60
2019-05-05T19:14:55.680Z,67.70
2019-05-05T19:17:25.185Z,67.90
2019-05-05T19:19:57.826Z,67.80
2019-05-05T19:22:27.004Z,67.60
2019-05-05T19:24:58.103Z,67.80
2019-05-05T19:27:27.447Z,68.20
2019-05-05T19:29:56.652Z,67.90
2019-05-05T19:32:25.583Z,67.90
2019-05-05T19:34:54.939Z,68.00
2019-05-05T19:37:24.019Z,68.10
2019-05-05T19:39:53.437Z,68.10
2019-05-05T19:42:23.964Z,68.00
2019-05-05T19:44:54.453Z,68.10
2019-05-05T19:47:24.612Z,68.10
2019-05-05T19:50:03.162Z,68.00
2019-05-05T19:52:34.709Z,68.10
2019-05-05T19:55:04.423Z,68.20
2019-05-05T19:57:36.013Z,68.20
2019-05-05T20:00:08.056Z,68.20
2019-05-05T20:02:39.444Z,68.10
2019-05-05T20:05:08.594Z,68.20
2019-05-05T20:07:37.666Z,68.30
2019-05-05T20:10:07.425Z,68.30
2019-05-05T20:12:36.978Z,68.20
2019-05-05T20:15:07.775Z,68.30
2019-05-05T20:17:37.534Z,68.40
2019-05-05T20:20:08.460Z,68.60
2019-05-05T20:22:37.629Z,68.50
2019-05-05T20:25:07.887Z,68.30
2019-05-05T20:27:36.838Z,68.40
2019-05-05T20:30:06.762Z,68.50
2019-05-05T20:32:42.517Z,68.70
2019-05-05T20:35:24.459Z,68.60
2019-05-05T20:38:33.881Z,68.60
2019-05-05T20:41:10.960Z,68.60
2019-05-05T20:43:40.052Z,68.80
2019-05-05T20:46:10.375Z,68.80
2019-05-05T20:48:41.223Z,68.80
2019-05-05T20:51:10.126Z,68.90
2019-05-05T20:53:39.223Z,68.90
2019-05-05T20:56:08.628Z,69.10
2019-05-05T20:58:37.728Z,69.60
2019-05-05T21:01:08.258Z,69.20
2019-05-05T21:03:37.529Z,69.10
2019-05-05T21:06:06.634Z,69.20
2019-05-05T21:08:35.647Z,69.30
2019-05-05T21:11:04.700Z,69.40
2019-05-05T21:13:34.433Z,69.60
2019-05-05T21:16:03.750Z,69.50
2019-05-05T21:18:34.690Z,69.70
2019-05-05T21:21:05.625Z,69.70
2019-05-05T21:23:48.742Z,69.80
2019-05-05T21:26:36.991Z,69.80
2019-05-05T21:29:06.008Z,70.00
2019-05-05T21:31:34.802Z,70.00
2019-05-05T21:34:03.669Z,70.10
2019-05-05T21:36:33.658Z,70.00
2019-05-05T21:39:04.023Z,70.20
2019-05-05T21:41:33.925Z,70.20
2019-05-05T21:44:03.792Z,70.20
2019-05-05T21:46:34.576Z,70.30
2019-05-05T21:49:03.958Z,70.30
2019-05-05T21:51:48.440Z,70.30
2019-05-05T21:54:35.907Z,70.20
2019-05-05T21:57:34.425Z,70.30
2019-05-05T22:00:04.597Z,70.30
2019-05-05T22:02:34.509Z,70.30
2019-05-05T22:05:04.178Z,70.30
2019-05-05T22:07:33.678Z,70.40
2019-05-05T22:10:04.441Z,70.40
2019-05-05T22:12:36.124Z,70.50
2019-05-05T22:15:04.352Z,70.40
2019-05-05T22:17:34.048Z,70.50
2019-05-05T22:20:11.770Z,70.50
2019-05-05T22:22:42.243Z,70.60
2019-05-05T22:25:14.053Z,70.70
2019-05-05T22:27:44.109Z,70.90
2019-05-05T22:30:14.201Z,70.80
2019-05-05T22:32:44.162Z,70.80
2019-05-05T22:35:14.033Z,70.80
2019-05-05T22:37:44.556Z,71.30
2019-05-05T22:40:20.715Z,71.00
2019-05-05T22:42:49.882Z,71.20
2019-05-05T22:45:19.027Z,71.10
2019-05-05T22:47:48.101Z,71.10
2019-05-05T22:50:17.021Z,71.20
2019-05-05T22:52:46.077Z,71.60
2019-05-05T22:55:15.391Z,71.20
2019-05-05T22:57:45.250Z,71.20
2019-05-05T23:00:26.024Z,71.30
2019-05-05T23:02:51.583Z,71.20
2019-05-05T23:05:34.783Z,71.20
2019-05-05T23:08:04.073Z,71.30
2019-05-05T23:10:33.433Z,71.30
2019-05-05T23:13:03.971Z,71.30
2019-05-05T23:15:34.398Z,71.40
2019-05-05T23:18:09.717Z,71.50
2019-05-05T23:20:54.535Z,71.60
2019-05-05T23:23:36.330Z,72.50
2019-05-05T23:26:06.685Z,71.50
2019-05-05T23:28:35.482Z,71.60
2019-05-05T23:31:04.643Z,71.50
2019-05-05T23:33:34.588Z,71.50
2019-05-05T23:36:04.139Z,71.50
2019-05-05T23:38:34.767Z,71.60
2019-05-05T23:41:03.906Z,71.60
2019-05-05T23:43:34.530Z,71.80
2019-05-05T23:46:03.714Z,71.90
2019-05-05T23:48:34.703Z,71.90
2019-05-05T23:51:06.196Z,72.00
2019-05-05T23:53:35.456Z,72.10
2019-05-05T23:56:04.658Z,72.10
2019-05-05T23:58:34.780Z,72.20
